sensor_id;sensor_type;location;lat;lon;timestamp;pressure;altitude;pressure_sealevel;temperature;humidity
68712;BME280;55690;51.566;19.198;2022-07-10T00:03:48;101673.98;;;14.88;100.00
68712;BME280;55690;51.566;19.198;2022-07-10T00:08:01;101667.65;;;14.88;100.00
68712;BME280;55690;51.566;19.198;2022-07-10T00:16:22;101665.98;;;15.20;100.00
68712;BME280;55690;51.566;19.198;2022-07-10T00:20:27;101658.02;;;15.17;100.00
68712;BME280;55690;51.566;19.198;2022-07-10T00:24:33;101660.15;;;15.25;100.00
68712;BME280;55690;51.566;19.198;2022-07-10T00:28:40;101641.14;;;15.35;100.00
68712;BME280;55690;51.566;19.198;2022-07-10T00:37:08;101627.70;;;15.31;100.00
68712;BME280;55690;51.566;19.198;2022-07-10T00:45:24;101621.74;;;15.38;100.00
68712;BME280;55690;51.566;19.198;2022-07-10T00:49:39;101619.51;;;15.43;100.00
68712;BME280;55690;51.566;19.198;2022-07-10T00:53:46;101620.27;;;15.45;100.00
68712;BME280;55690;51.566;19.198;2022-07-10T00:58:00;101617.15;;;15.49;100.00
68712;BME280;55690;51.566;19.198;2022-07-10T01:06:19;101616.53;;;15.46;100.00
68712;BME280;55690;51.566;19.198;2022-07-10T01:10:21;101624.50;;;15.49;100.00
68712;BME280;55690;51.566;19.198;2022-07-10T01:14:30;101619.65;;;15.52;100.00
68712;BME280;55690;51.566;19.198;2022-07-10T01:18:32;101620.18;;;15.57;100.00
68712;BME280;55690;51.566;19.198;2022-07-10T01:22:38;101611.31;;;15.65;100.00
68712;BME280;55690;51.566;19.198;2022-07-10T01:26:49;101616.79;;;15.65;100.00
68712;BME280;55690;51.566;19.198;2022-07-10T01:35:04;101609.70;;;15.62;100.00
68712;BME280;55690;51.566;19.198;2022-07-10T01:47:29;101600.48;;;15.63;100.00
68712;BME280;55690;51.566;19.198;2022-07-10T01:51:31;101600.23;;;15.67;100.00
68712;BME280;55690;51.566;19.198;2022-07-10T01:55:41;101594.88;;;15.65;100.00
68712;BME280;55690;51.566;19.198;2022-07-10T01:59:44;101595.02;;;15.63;100.00
68712;BME280;55690;51.566;19.198;2022-07-10T02:03:49;101598.76;;;15.62;100.00
68712;BME280;55690;51.566;19.198;2022-07-10T02:08:06;101591.16;;;15.66;100.00
68712;BME280;55690;51.566;19.198;2022-07-10T02:12:20;101597.75;;;15.63;100.00
68712;BME280;55690;51.566;19.198;2022-07-10T02:16:30;101598.76;;;15.62;100.00
68712;BME280;55690;51.566;19.198;2022-07-10T02:20:37;101584.06;;;15.63;100.00
68712;BME280;55690;51.566;19.198;2022-07-10T02:28:49;101600.37;;;15.65;100.00
68712;BME280;55690;51.566;19.198;2022-07-10T02:33:01;101601.23;;;15.43;100.00
68712;BME280;55690;51.566;19.198;2022-07-10T02:41:14;101594.27;;;15.61;100.00
68712;BME280;55690;51.566;19.198;2022-07-10T02:45:34;101596.01;;;15.62;100.00
68712;BME280;55690;51.566;19.198;2022-07-10T02:49:39;101592.40;;;15.62;100.00
68712;BME280;55690;51.566;19.198;2022-07-10T02:53:53;101595.27;;;15.60;100.00
68712;BME280;55690;51.566;19.198;2022-07-10T02:58:02;101589.07;;;15.58;100.00
68712;BME280;55690;51.566;19.198;2022-07-10T03:02:05;101589.07;;;15.58;100.00
68712;BME280;55690;51.566;19.198;2022-07-10T03:06:14;101579.34;;;15.66;100.00
68712;BME280;55690;51.566;19.198;2022-07-10T03:10:33;101577.13;;;15.59;100.00
68712;BME280;55690;51.566;19.198;2022-07-10T03:14:40;101576.59;;;15.54;100.00
68712;BME280;55690;51.566;19.198;2022-07-10T03:18:48;101571.50;;;15.61;100.00
68712;BME280;55690;51.566;19.198;2022-07-10T03:22:59;101575.23;;;15.49;100.00
68712;BME280;55690;51.566;19.198;2022-07-10T03:27:08;101581.07;;;15.44;100.00
68712;BME280;55690;51.566;19.198;2022-07-10T03:35:19;101581.20;;;15.54;100.00
68712;BME280;55690;51.566;19.198;2022-07-10T03:39:22;101581.08;;;15.55;100.00
68712;BME280;55690;51.566;19.198;2022-07-10T03:43:26;101579.34;;;15.54;100.00
68712;BME280;55690;51.566;19.198;2022-07-10T03:47:34;101580.70;;;15.49;100.00
68712;BME280;55690;51.566;19.198;2022-07-10T03:51:37;101578.34;;;15.44;100.00
68712;BME280;55690;51.566;19.198;2022-07-10T03:59:54;101578.12;;;15.58;100.00
68712;BME280;55690;51.566;19.198;2022-07-10T04:08:08;101576.97;;;15.61;100.00
68712;BME280;55690;51.566;19.198;2022-07-10T04:12:17;101581.08;;;15.67;100.00
68712;BME280;55690;51.566;19.198;2022-07-10T04:20:40;101582.33;;;15.62;100.00
68712;BME280;55690;51.566;19.198;2022-07-10T04:24:46;101582.30;;;15.40;100.00
68712;BME280;55690;51.566;19.198;2022-07-10T04:33:03;101582.20;;;15.53;100.00
68712;BME280;55690;51.566;19.198;2022-07-10T04:41:18;101576.84;;;15.40;100.00
68712;BME280;55690;51.566;19.198;2022-07-10T04:45:23;101570.24;;;15.43;100.00
68712;BME280;55690;51.566;19.198;2022-07-10T04:49:40;101576.34;;;15.46;100.00
68712;BME280;55690;51.566;19.198;2022-07-10T04:53:43;101575.98;;;15.62;100.00
68712;BME280;55690;51.566;19.198;2022-07-10T04:57:48;101573.48;;;15.70;100.00
68712;BME280;55690;51.566;19.198;2022-07-10T05:01:50;101572.61;;;15.70;100.00
68712;BME280;55690;51.566;19.198;2022-07-10T05:10:03;101563.44;;;15.59;100.00
68712;BME280;55690;51.566;19.198;2022-07-10T05:14:11;101574.34;;;15.82;100.00
68712;BME280;55690;51.566;19.198;2022-07-10T05:18:14;101571.12;;;15.77;100.00
68712;BME280;55690;51.566;19.198;2022-07-10T05:22:19;101577.58;;;15.87;100.00
68712;BME280;55690;51.566;19.198;2022-07-10T05:26:25;101573.36;;;15.60;100.00
68712;BME280;55690;51.566;19.198;2022-07-10T05:30:28;101574.09;;;15.85;100.00
68712;BME280;55690;51.566;19.198;2022-07-10T05:34:33;101572.84;;;15.89;100.00
68712;BME280;55690;51.566;19.198;2022-07-10T05:38:36;101570.59;;;15.94;100.00
68712;BME280;55690;51.566;19.198;2022-07-10T05:46:48;101581.24;;;16.08;100.00
68712;BME280;55690;51.566;19.198;2022-07-10T05:55:08;101587.91;;;16.58;100.00
68712;BME280;55690;51.566;19.198;2022-07-10T06:03:19;101576.05;;;16.69;100.00
68712;BME280;55690;51.566;19.198;2022-07-10T06:07:26;101568.30;;;16.74;100.00
68712;BME280;55690;51.566;19.198;2022-07-10T06:11:28;101575.46;;;16.54;100.00
68712;BME280;55690;51.566;19.198;2022-07-10T06:15:34;101567.04;;;16.78;100.00
68712;BME280;55690;51.566;19.198;2022-07-10T06:19:39;101561.54;;;17.60;100.00
68712;BME280;55690;51.566;19.198;2022-07-10T06:23:45;101567.04;;;18.00;100.00
68712;BME280;55690;51.566;19.198;2022-07-10T06:27:50;101566.45;;;17.97;100.00
68712;BME280;55690;51.566;19.198;2022-07-10T06:36:04;101551.47;;;17.30;97.97
68712;BME280;55690;51.566;19.198;2022-07-10T06:40:13;101545.38;;;17.26;98.33
68712;BME280;55690;51.566;19.198;2022-07-10T06:44:16;101552.52;;;17.69;98.57
68712;BME280;55690;51.566;19.198;2022-07-10T06:52:26;101551.60;;;18.86;93.70
68712;BME280;55690;51.566;19.198;2022-07-10T06:56:32;101551.94;;;19.20;92.75
68712;BME280;55690;51.566;19.198;2022-07-10T07:00:40;101521.70;;;19.47;90.27
68712;BME280;55690;51.566;19.198;2022-07-10T07:04:43;101547.84;;;19.34;86.41
68712;BME280;55690;51.566;19.198;2022-07-10T07:08:47;101548.25;;;19.02;88.57
68712;BME280;55690;51.566;19.198;2022-07-10T07:12:56;101549.73;;;18.57;87.51
68712;BME280;55690;51.566;19.198;2022-07-10T07:17:03;101559.11;;;18.26;89.96
68712;BME280;55690;51.566;19.198;2022-07-10T07:21:10;101565.52;;;17.77;92.51
68712;BME280;55690;51.566;19.198;2022-07-10T07:29:29;101554.91;;;17.62;90.01
68712;BME280;55690;51.566;19.198;2022-07-10T07:33:32;101558.15;;;17.68;88.93
68712;BME280;55690;51.566;19.198;2022-07-10T07:37:42;101555.12;;;17.71;91.59
68712;BME280;55690;51.566;19.198;2022-07-10T07:41:48;101558.09;;;18.08;87.68
68712;BME280;55690;51.566;19.198;2022-07-10T07:45:53;101555.94;;;18.40;86.32
68712;BME280;55690;51.566;19.198;2022-07-10T07:54:03;101558.41;;;18.53;84.92
68712;BME280;55690;51.566;19.198;2022-07-10T08:02:17;101557.84;;;18.59;84.38
68712;BME280;55690;51.566;19.198;2022-07-10T08:06:19;101573.47;;;18.87;84.99
68712;BME280;55690;51.566;19.198;2022-07-10T08:14:28;101574.05;;;18.72;82.58
68712;BME280;55690;51.566;19.198;2022-07-10T08:18:39;101566.89;;;19.08;82.46
68712;BME280;55690;51.566;19.198;2022-07-10T08:22:48;101572.75;;;19.42;81.47
68712;BME280;55690;51.566;19.198;2022-07-10T08:26:50;101574.45;;;19.06;80.83
68712;BME280;55690;51.566;19.198;2022-07-10T08:39:07;101574.60;;;19.51;77.97
68712;BME280;55690;51.566;19.198;2022-07-10T08:55:43;101572.59;;;18.87;79.40
68712;BME280;55690;51.566;19.198;2022-07-10T08:59:53;101563.22;;;19.26;78.70
68712;BME280;55690;51.566;19.198;2022-07-10T09:04:02;101561.48;;;19.72;77.57
68712;BME280;55690;51.566;19.198;2022-07-10T09:12:21;101558.23;;;19.49;76.45
68712;BME280;55690;51.566;19.198;2022-07-10T09:16:31;101566.10;;;19.35;75.75
68712;BME280;55690;51.566;19.198;2022-07-10T09:20:36;101578.90;;;19.16;75.70
68712;BME280;55690;51.566;19.198;2022-07-10T09:24:44;101567.32;;;19.59;74.22
68712;BME280;55690;51.566;19.198;2022-07-10T09:29:04;101571.16;;;19.76;75.40
68712;BME280;55690;51.566;19.198;2022-07-10T09:45:39;101585.86;;;18.05;89.07
68712;BME280;55690;51.566;19.198;2022-07-10T09:49:47;101591.32;;;17.95;90.72
68712;BME280;55690;51.566;19.198;2022-07-10T09:53:49;101580.09;;;18.08;92.10
68712;BME280;55690;51.566;19.198;2022-07-10T10:02:02;101580.70;;;17.71;93.41
68712;BME280;55690;51.566;19.198;2022-07-10T10:10:19;101578.94;;;18.10;92.02
68712;BME280;55690;51.566;19.198;2022-07-10T10:18:33;101571.44;;;18.89;88.22
68712;BME280;55690;51.566;19.198;2022-07-10T10:22:40;101566.37;;;18.85;88.14
68712;BME280;55690;51.566;19.198;2022-07-10T10:26:49;101558.98;;;18.76;86.74
68712;BME280;55690;51.566;19.198;2022-07-10T10:30:57;101567.40;;;19.40;82.67
68712;BME280;55690;51.566;19.198;2022-07-10T10:42:02;101559.77;;;20.34;77.62
68712;BME280;55690;51.566;19.198;2022-07-10T10:46:24;101558.83;;;20.79;73.98
68712;BME280;55690;51.566;19.198;2022-07-10T10:50:45;101552.61;;;20.41;73.38
68712;BME280;55690;51.566;19.198;2022-07-10T10:59:04;101574.19;;;19.83;75.48
68712;BME280;55690;51.566;19.198;2022-07-10T11:03:17;101607.64;;;18.56;76.28
68712;BME280;55690;51.566;19.198;2022-07-10T11:11:43;101623.11;;;17.27;87.72
68712;BME280;55690;51.566;19.198;2022-07-10T11:15:49;101613.77;;;17.39;90.52
68712;BME280;55690;51.566;19.198;2022-07-10T11:24:10;101626.68;;;17.48;92.18
68712;BME280;55690;51.566;19.198;2022-07-10T11:28:26;101617.70;;;17.46;91.86
68712;BME280;55690;51.566;19.198;2022-07-10T11:32:44;101610.74;;;17.42;93.47
68712;BME280;55690;51.566;19.198;2022-07-10T11:36:48;101601.88;;;17.59;93.19
68712;BME280;55690;51.566;19.198;2022-07-10T11:49:30;101598.16;;;17.40;95.58
68712;BME280;55690;51.566;19.198;2022-07-10T11:53:33;101593.85;;;17.68;94.11
68712;BME280;55690;51.566;19.198;2022-07-10T11:57:39;101590.47;;;17.64;97.70
68712;BME280;55690;51.566;19.198;2022-07-10T12:01:51;101599.84;;;17.92;97.97
68712;BME280;55690;51.566;19.198;2022-07-10T12:05:54;101591.05;;;17.98;97.73
68712;BME280;55690;51.566;19.198;2022-07-10T12:14:09;101587.80;;;18.52;96.80
68712;BME280;55690;51.566;19.198;2022-07-10T12:18:17;101592.27;;;18.44;97.13
68712;BME280;55690;51.566;19.198;2022-07-10T12:22:20;101586.35;;;18.48;96.81
68712;BME280;55690;51.566;19.198;2022-07-10T12:30:43;101577.67;;;18.82;89.35
68712;BME280;55690;51.566;19.198;2022-07-10T12:34:51;101585.09;;;19.38;91.59
68712;BME280;55690;51.566;19.198;2022-07-10T12:38:56;101577.31;;;19.14;87.18
68712;BME280;55690;51.566;19.198;2022-07-10T12:43:03;101570.02;;;19.32;85.28
68712;BME280;55690;51.566;19.198;2022-07-10T12:51:28;101579.26;;;18.84;88.30
68712;BME280;55690;51.566;19.198;2022-07-10T12:55:38;101590.73;;;18.60;87.39
68712;BME280;55690;51.566;19.198;2022-07-10T12:59:42;101591.11;;;18.46;91.90
68712;BME280;55690;51.566;19.198;2022-07-10T13:03:45;101587.76;;;18.23;92.00
68712;BME280;55690;51.566;19.198;2022-07-10T13:07:48;101589.09;;;18.19;90.65
68712;BME280;55690;51.566;19.198;2022-07-10T13:11:51;101587.85;;;17.93;91.93
68712;BME280;55690;51.566;19.198;2022-07-10T13:16:09;101590.20;;;18.07;91.08
68712;BME280;55690;51.566;19.198;2022-07-10T13:20:09;101585.02;;;18.14;93.19
68712;BME280;55690;51.566;19.198;2022-07-10T13:24:12;101572.72;;;18.27;88.80
68712;BME280;55690;51.566;19.198;2022-07-10T13:32:25;101563.77;;;18.64;88.51
68712;BME280;55690;51.566;19.198;2022-07-10T13:36:30;101568.84;;;18.88;87.12
68712;BME280;55690;51.566;19.198;2022-07-10T13:40:36;101570.72;;;18.87;87.93
68712;BME280;55690;51.566;19.198;2022-07-10T13:44:42;101559.18;;;19.21;82.52
68712;BME280;55690;51.566;19.198;2022-07-10T13:48:47;101569.63;;;19.17;86.60
68712;BME280;55690;51.566;19.198;2022-07-10T13:57:03;101550.95;;;19.58;80.96
68712;BME280;55690;51.566;19.198;2022-07-10T14:01:07;101543.46;;;19.78;83.08
68712;BME280;55690;51.566;19.198;2022-07-10T14:09:18;101531.11;;;19.82;77.70
68712;BME280;55690;51.566;19.198;2022-07-10T14:13:35;101538.37;;;20.01;78.11
68712;BME280;55690;51.566;19.198;2022-07-10T14:21:48;101542.30;;;19.98;80.25
68712;BME280;55690;51.566;19.198;2022-07-10T14:25:50;101537.80;;;20.60;78.38
68712;BME280;55690;51.566;19.198;2022-07-10T14:34:06;101538.18;;;20.65;78.54
68712;BME280;55690;51.566;19.198;2022-07-10T14:42:18;101532.65;;;21.35;74.31
68712;BME280;55690;51.566;19.198;2022-07-10T14:46:24;101540.70;;;21.02;71.98
68712;BME280;55690;51.566;19.198;2022-07-10T14:54:31;101555.16;;;20.07;73.60
68712;BME280;55690;51.566;19.198;2022-07-10T14:58:34;101569.66;;;19.54;72.49
68712;BME280;55690;51.566;19.198;2022-07-10T15:02:36;101568.34;;;19.58;73.51
68712;BME280;55690;51.566;19.198;2022-07-10T15:06:46;101575.18;;;19.54;74.28
68712;BME280;55690;51.566;19.198;2022-07-10T15:10:49;101582.76;;;19.80;75.42
68712;BME280;55690;51.566;19.198;2022-07-10T15:14:54;101580.65;;;19.64;74.63
68712;BME280;55690;51.566;19.198;2022-07-10T15:23:06;101586.05;;;19.56;74.44
68712;BME280;55690;51.566;19.198;2022-07-10T15:27:08;101587.74;;;19.67;76.17
68712;BME280;55690;51.566;19.198;2022-07-10T15:31:10;101591.10;;;19.60;74.72
68712;BME280;55690;51.566;19.198;2022-07-10T15:35:16;101587.55;;;19.78;73.89
68712;BME280;55690;51.566;19.198;2022-07-10T15:39:18;101584.50;;;19.81;76.71
68712;BME280;55690;51.566;19.198;2022-07-10T15:43:26;101583.36;;;19.74;74.75
68712;BME280;55690;51.566;19.198;2022-07-10T15:47:44;101587.24;;;19.81;78.07
68712;BME280;55690;51.566;19.198;2022-07-10T15:51:47;101584.58;;;19.62;76.56
68712;BME280;55690;51.566;19.198;2022-07-10T15:55:51;101584.20;;;19.84;78.50
68712;BME280;55690;51.566;19.198;2022-07-10T16:08:11;101612.48;;;19.39;79.73
68712;BME280;55690;51.566;19.198;2022-07-10T16:16:25;101670.70;;;17.16;95.03
68712;BME280;55690;51.566;19.198;2022-07-10T16:24:31;101660.56;;;16.75;96.36
68712;BME280;55690;51.566;19.198;2022-07-10T16:28:44;101662.82;;;16.70;98.68
68712;BME280;55690;51.566;19.198;2022-07-10T16:32:46;101662.26;;;16.87;99.07
68712;BME280;55690;51.566;19.198;2022-07-10T16:36:50;101661.65;;;16.84;100.00
68712;BME280;55690;51.566;19.198;2022-07-10T16:40:52;101668.19;;;16.92;100.00
68712;BME280;55690;51.566;19.198;2022-07-10T16:49:04;101659.17;;;16.81;100.00
68712;BME280;55690;51.566;19.198;2022-07-10T16:53:07;101662.17;;;16.78;100.00
68712;BME280;55690;51.566;19.198;2022-07-10T17:01:24;101659.91;;;16.83;100.00
68712;BME280;55690;51.566;19.198;2022-07-10T17:05:26;101666.01;;;16.86;100.00
68712;BME280;55690;51.566;19.198;2022-07-10T17:13:42;101670.81;;;16.94;100.00
68712;BME280;55690;51.566;19.198;2022-07-10T17:17:46;101674.98;;;16.88;100.00
68712;BME280;55690;51.566;19.198;2022-07-10T17:26:03;101682.89;;;16.71;100.00
68712;BME280;55690;51.566;19.198;2022-07-10T17:34:12;101691.06;;;16.39;100.00
68712;BME280;55690;51.566;19.198;2022-07-10T17:38:18;101687.23;;;16.19;100.00
68712;BME280;55690;51.566;19.198;2022-07-10T17:42:25;101697.29;;;15.51;100.00
68712;BME280;55690;51.566;19.198;2022-07-10T17:46:37;101696.55;;;15.60;100.00
68712;BME280;55690;51.566;19.198;2022-07-10T17:50:39;101699.82;;;15.77;100.00
68712;BME280;55690;51.566;19.198;2022-07-10T17:54:42;101696.47;;;15.84;100.00
68712;BME280;55690;51.566;19.198;2022-07-10T17:58:50;101698.34;;;15.95;100.00
68712;BME280;55690;51.566;19.198;2022-07-10T18:07:01;101714.29;;;16.01;100.00
68712;BME280;55690;51.566;19.198;2022-07-10T18:11:03;101709.80;;;15.89;100.00
68712;BME280;55690;51.566;19.198;2022-07-10T18:19:15;101706.07;;;16.01;100.00
68712;BME280;55690;51.566;19.198;2022-07-10T18:23:17;101713.04;;;15.94;100.00
68712;BME280;55690;51.566;19.198;2022-07-10T18:31:27;101723.98;;;15.94;100.00
68712;BME280;55690;51.566;19.198;2022-07-10T18:35:29;101723.73;;;15.86;100.00
68712;BME280;55690;51.566;19.198;2022-07-10T18:39:35;101724.48;;;15.88;100.00
68712;BME280;55690;51.566;19.198;2022-07-10T18:47:41;101739.27;;;15.74;100.00
68712;BME280;55690;51.566;19.198;2022-07-10T18:51:43;101739.88;;;15.67;100.00
68712;BME280;55690;51.566;19.198;2022-07-10T18:55:48;101742.09;;;15.50;100.00
68712;BME280;55690;51.566;19.198;2022-07-10T18:59:51;101745.02;;;15.36;100.00
68712;BME280;55690;51.566;19.198;2022-07-10T19:03:56;101748.94;;;15.21;100.00
68712;BME280;55690;51.566;19.198;2022-07-10T19:07:58;101750.55;;;15.12;100.00
68712;BME280;55690;51.566;19.198;2022-07-10T19:12:05;101749.91;;;15.09;100.00
68712;BME280;55690;51.566;19.198;2022-07-10T19:20:13;101758.70;;;15.01;100.00
68712;BME280;55690;51.566;19.198;2022-07-10T19:24:18;101757.54;;;14.92;100.00
68712;BME280;55690;51.566;19.198;2022-07-10T19:28:27;101757.13;;;14.86;100.00
68712;BME280;55690;51.566;19.198;2022-07-10T19:32:30;101760.09;;;14.83;100.00
68712;BME280;55690;51.566;19.198;2022-07-10T19:36:31;101763.94;;;14.80;100.00
68712;BME280;55690;51.566;19.198;2022-07-10T19:40:39;101749.58;;;14.66;100.00
68712;BME280;55690;51.566;19.198;2022-07-10T19:44:47;101741.72;;;14.61;100.00
68712;BME280;55690;51.566;19.198;2022-07-10T19:48:49;101741.83;;;14.59;100.00
68712;BME280;55690;51.566;19.198;2022-07-10T19:56:56;101746.00;;;14.40;100.00
68712;BME280;55690;51.566;19.198;2022-07-10T20:00:59;101753.33;;;14.39;100.00
68712;BME280;55690;51.566;19.198;2022-07-10T20:05:04;101763.95;;;14.31;100.00
68712;BME280;55690;51.566;19.198;2022-07-10T20:09:07;101757.21;;;14.24;100.00
68712;BME280;55690;51.566;19.198;2022-07-10T20:17:23;101747.39;;;14.09;100.00
68712;BME280;55690;51.566;19.198;2022-07-10T20:21:25;101743.79;;;14.08;100.00
68712;BME280;55690;51.566;19.198;2022-07-10T20:29:36;101736.15;;;14.01;100.00
68712;BME280;55690;51.566;19.198;2022-07-10T20:33:38;101737.35;;;13.96;100.00
68712;BME280;55690;51.566;19.198;2022-07-10T20:37:43;101745.10;;;13.90;100.00
68712;BME280;55690;51.566;19.198;2022-07-10T20:41:45;101743.36;;;13.89;100.00
68712;BME280;55690;51.566;19.198;2022-07-10T20:45:50;101749.08;;;13.86;100.00
68712;BME280;55690;51.566;19.198;2022-07-10T20:49:57;101747.33;;;13.85;100.00
68712;BME280;55690;51.566;19.198;2022-07-10T20:58:03;101748.30;;;13.71;100.00
68712;BME280;55690;51.566;19.198;2022-07-10T21:02:05;101744.27;;;13.77;100.00
68712;BME280;55690;51.566;19.198;2022-07-10T21:14:27;101762.83;;;13.72;100.00
68712;BME280;55690;51.566;19.198;2022-07-10T21:18:32;101762.83;;;13.72;100.00
68712;BME280;55690;51.566;19.198;2022-07-10T21:26:43;101776.69;;;13.69;100.00
68712;BME280;55690;51.566;19.198;2022-07-10T21:30:49;101770.04;;;13.73;100.00
68712;BME280;55690;51.566;19.198;2022-07-10T21:43:06;101762.57;;;13.49;100.00
68712;BME280;55690;51.566;19.198;2022-07-10T21:55:18;101751.77;;;13.35;100.00
68712;BME280;55690;51.566;19.198;2022-07-10T21:59:23;101753.95;;;13.30;100.00
68712;BME280;55690;51.566;19.198;2022-07-10T22:07:29;101765.17;;;13.25;100.00
68712;BME280;55690;51.566;19.198;2022-07-10T22:15:40;101769.34;;;13.31;100.00
68712;BME280;55690;51.566;19.198;2022-07-10T22:19:42;101760.17;;;13.32;100.00
68712;BME280;55690;51.566;19.198;2022-07-10T22:27:48;101764.44;;;13.36;100.00
68712;BME280;55690;51.566;19.198;2022-07-10T22:31:55;101759.86;;;13.37;100.00
68712;BME280;55690;51.566;19.198;2022-07-10T22:36:04;101759.09;;;13.35;100.00
68712;BME280;55690;51.566;19.198;2022-07-10T22:40:07;101754.30;;;13.38;100.00
68712;BME280;55690;51.566;19.198;2022-07-10T22:44:12;101755.16;;;13.39;100.00
68712;BME280;55690;51.566;19.198;2022-07-10T22:52:22;101755.83;;;13.42;100.00
68712;BME280;55690;51.566;19.198;2022-07-10T22:56:28;101750.23;;;13.44;100.00
68712;BME280;55690;51.566;19.198;2022-07-10T23:00:34;101749.80;;;13.50;100.00
68712;BME280;55690;51.566;19.198;2022-07-10T23:04:42;101750.89;;;13.47;100.00
68712;BME280;55690;51.566;19.198;2022-07-10T23:08:45;101753.98;;;13.43;100.00
68712;BME280;55690;51.566;19.198;2022-07-10T23:12:48;101746.32;;;13.48;100.00
68712;BME280;55690;51.566;19.198;2022-07-10T23:16:56;101746.00;;;13.40;100.00
68712;BME280;55690;51.566;19.198;2022-07-10T23:21:05;101751.35;;;13.41;100.00
68712;BME280;55690;51.566;19.198;2022-07-10T23:25:15;101748.17;;;13.35;100.00
68712;BME280;55690;51.566;19.198;2022-07-10T23:29:21;101753.07;;;13.29;100.00
68712;BME280;55690;51.566;19.198;2022-07-10T23:33:23;101747.27;;;13.21;100.00
68712;BME280;55690;51.566;19.198;2022-07-10T23:37:30;101742.83;;;13.06;100.00
68712;BME280;55690;51.566;19.198;2022-07-10T23:41:35;101748.17;;;13.08;100.00
68712;BME280;55690;51.566;19.198;2022-07-10T23:45:40;101746.89;;;13.13;100.00
68712;BME280;55690;51.566;19.198;2022-07-10T23:49:42;101739.78;;;13.11;100.00
68712;BME280;55690;51.566;19.198;2022-07-10T23:54:02;101740.30;;;13.03;100.00
68712;BME280;55690;51.566;19.198;2022-07-10T23:58:08;101746.97;;;12.99;100.00
